Time;durP1;ratioP1;P1;durP2;ratioP2;P2;SDS_P1;SDS_P2;PMS_P1;PMS_P2;Temp;Humidity;BMP_temperature;BMP_pressure;BME280_temperature;BME280_humidity;BME280_pressure;Samples;Min_cycle;Max_cycle;Signal;HPM_P1;HPM_P2
2024/04/02 00:01:27;;;;;;;3.33;0.70;;;;;;;7.44;76.13;91861.56;2034637;70;20558;-76
2024/04/02 00:03:53;;;;;;;0.60;0.55;;;;;;;7.17;77.57;91870.47;2030877;70;20580;-74
2024/04/02 00:06:18;;;;;;;1.05;0.90;;;;;;;7.19;78.14;91867.78;2034689;70;20160;-76
2024/04/02 00:08:44;;;;;;;1.77;0.90;;;;;;;7.34;76.25;91853.31;2034652;70;20212;-74
2024/04/02 00:11:10;;;;;;;0.70;0.70;;;;;;;7.38;77.02;91873.16;2034589;70;20584;-74
2024/04/02 00:13:36;;;;;;;0.55;0.55;;;;;;;7.08;77.82;91888.13;2034622;70;20144;-73
2024/04/02 00:16:02;;;;;;;2.88;0.70;;;;;;;7.44;76.32;91886.03;2028270;70;20152;-77
2024/04/02 00:18:28;;;;;;;1.00;0.70;;;;;;;7.51;76.38;91890.66;2034686;70;20178;-77
2024/04/02 00:21:00;;;;;;;0.80;0.60;;;;;;;7.45;76.12;91896.63;2034459;70;20210;-77
2024/04/02 00:23:25;;;;;;;0.82;0.68;;;;;;;7.43;76.29;91893.72;2034574;70;20155;-75
2024/04/02 00:26:02;;;;;;;0.95;0.85;;;;;;;7.06;78.29;91897.13;2034920;70;20155;-78
2024/04/02 00:28:28;;;;;;;1.08;0.82;;;;;;;7.34;76.57;91892.50;2034654;70;20152;-75
2024/04/02 00:31:01;;;;;;;1.38;0.80;;;;;;;7.35;75.72;91901.63;2034858;70;20243;-73
2024/04/02 00:33:28;;;;;;;0.68;0.60;;;;;;;7.33;75.69;91902.25;2035150;70;20191;-72
2024/04/02 00:36:05;;;;;;;1.90;0.88;;;;;;;7.15;76.40;91895.56;2034434;70;20570;-74
2024/04/02 00:38:32;;;;;;;0.70;0.65;;;;;;;7.22;75.42;91888.25;2035045;70;20155;-73
2024/04/02 00:40:58;;;;;;;1.05;0.60;;;;;;;7.18;75.33;91896.41;2034863;70;20162;-76
2024/04/02 00:43:24;;;;;;;0.77;0.60;;;;;;;7.11;76.00;91892.50;2030778;70;20144;-73
2024/04/02 00:45:50;;;;;;;0.60;0.50;;;;;;;7.10;75.53;91897.38;2034466;70;20152;-74
2024/04/02 00:48:17;;;;;;;1.83;0.60;;;;;;;7.10;76.12;91907.81;2034558;70;20186;-74
2024/04/02 00:50:44;;;;;;;3.78;1.00;;;;;;;7.03;76.20;91908.81;2034730;70;20724;-74
2024/04/02 00:53:12;;;;;;;0.85;0.70;;;;;;;7.07;76.29;91912.59;2031041;70;20148;-72
2024/04/02 00:55:41;;;;;;;0.70;0.70;;;;;;;7.12;75.30;91919.16;2030842;70;20224;-74
2024/04/02 00:58:06;;;;;;;1.05;0.80;;;;;;;7.01;75.83;91917.06;2034072;70;20156;-73
2024/04/02 01:00:35;;;;;;;0.70;0.70;;;;;;;7.04;75.79;91916.59;2030845;70;20270;-73
2024/04/02 01:03:05;;;;;;;0.80;0.65;;;;;;;7.09;75.61;91920.38;2030976;70;20144;-74
2024/04/02 01:05:35;;;;;;;1.00;0.80;;;;;;;7.03;75.67;91929.13;2034484;70;20172;-72
2024/04/02 01:08:03;;;;;;;1.10;1.00;;;;;;;7.13;75.33;91929.00;2034544;70;20180;-73
2024/04/02 01:10:29;;;;;;;1.33;1.23;;;;;;;7.17;74.04;91937.66;2034511;70;20180;-73
2024/04/02 01:12:55;;;;;;;1.98;1.10;;;;;;;7.21;74.71;91937.19;2034411;70;20152;-71
2024/04/02 01:15:22;;;;;;;1.40;1.00;;;;;;;7.13;75.59;91935.34;2034555;70;20597;-73
2024/04/02 01:17:48;;;;;;;1.30;0.80;;;;;;;6.93;75.65;91914.53;2028230;70;20163;-74
2024/04/02 01:20:14;;;;;;;1.50;1.00;;;;;;;7.03;76.11;91931.94;2034360;70;20140;-73
2024/04/02 01:22:40;;;;;;;1.17;0.90;;;;;;;7.15;75.45;91929.16;2031365;70;20544;-74
2024/04/02 01:25:08;;;;;;;2.10;1.20;;;;;;;6.77;77.91;91944.28;2034762;70;20163;-74
2024/04/02 01:27:34;;;;;;;1.10;0.90;;;;;;;7.04;76.69;91946.66;2034905;70;20144;-72
2024/04/02 01:29:59;;;;;;;2.50;1.00;;;;;;;7.00;76.53;91912.81;2034824;70;20895;-73
2024/04/02 01:32:25;;;;;;;0.98;0.90;;;;;;;7.12;76.82;91927.56;2034901;70;20179;-72
2024/04/02 01:34:51;;;;;;;1.88;0.95;;;;;;;6.78;77.08;91924.13;2034833;70;20257;-72
2024/04/02 01:37:16;;;;;;;1.15;1.00;;;;;;;6.87;77.50;91920.47;2034924;70;20231;-72
2024/04/02 01:39:42;;;;;;;0.95;0.73;;;;;;;6.83;76.67;91923.03;2034920;70;20656;-72
2024/04/02 01:42:08;;;;;;;0.80;0.80;;;;;;;6.71;77.38;91916.69;2034978;70;20156;-73
2024/04/02 01:44:33;;;;;;;0.85;0.80;;;;;;;6.79;76.67;91925.56;2034825;70;20228;-72
2024/04/02 01:46:59;;;;;;;1.50;1.08;;;;;;;6.76;76.75;91917.66;2034771;70;20154;-71
2024/04/02 01:49:25;;;;;;;1.20;0.90;;;;;;;6.74;76.98;91937.13;2034845;70;20259;-72
2024/04/02 01:51:50;;;;;;;3.58;0.98;;;;;;;6.71;77.06;91941.84;2034584;70;20148;-73
2024/04/02 01:54:16;;;;;;;1.88;0.90;;;;;;;6.56;77.10;91945.81;2034761;70;20573;-74
2024/04/02 01:56:42;;;;;;;1.70;0.90;;;;;;;6.47;77.39;91955.03;2034810;70;20156;-73
2024/04/02 01:59:07;;;;;;;2.45;0.90;;;;;;;6.53;78.36;91960.28;2031504;70;20148;-72
2024/04/02 02:01:33;;;;;;;1.83;1.02;;;;;;;6.67;77.69;91946.47;2035248;70;20235;-72
2024/04/02 02:03:59;;;;;;;1.98;1.60;;;;;;;6.88;76.72;91963.19;2031644;70;20240;-73
2024/04/02 02:06:26;;;;;;;2.28;1.63;;;;;;;6.88;76.45;91974.38;2034751;70;20144;-73
2024/04/02 02:08:52;;;;;;;3.13;0.88;;;;;;;6.93;76.72;91978.16;2035005;70;20144;-73
2024/04/02 02:11:17;;;;;;;1.08;0.80;;;;;;;7.02;75.55;91980.13;2035163;70;20144;-73
2024/04/02 02:13:43;;;;;;;2.67;0.90;;;;;;;6.93;76.09;91980.94;2029043;70;20240;-72
2024/04/02 02:16:09;;;;;;;1.00;0.90;;;;;;;7.00;76.38;91988.38;2035061;70;20160;-74
2024/04/02 02:18:34;;;;;;;1.63;0.90;;;;;;;7.07;75.88;91990.22;2035128;70;20159;-74
2024/04/02 02:21:00;;;;;;;0.98;0.82;;;;;;;7.06;76.24;91986.69;2031274;70;20313;-74
2024/04/02 02:23:26;;;;;;;0.90;0.80;;;;;;;7.04;76.76;91997.03;2034975;70;20231;-77
2024/04/02 02:25:52;;;;;;;2.55;0.70;;;;;;;7.08;76.38;91994.47;2035098;70;20156;-74
2024/04/02 02:28:18;;;;;;;1.15;0.73;;;;;;;6.83;75.99;91978.25;2031054;70;20300;-75
2024/04/02 02:30:44;;;;;;;7.75;0.93;;;;;;;7.02;75.69;91980.84;2034962;70;20260;-77
2024/04/02 02:33:10;;;;;;;1.05;0.80;;;;;;;7.08;76.13;91975.63;2034943;70;20156;-74
2024/04/02 02:35:36;;;;;;;1.45;0.70;;;;;;;7.00;76.83;91977.91;2035102;70;20159;-74
2024/04/02 02:38:01;;;;;;;1.20;0.80;;;;;;;6.74;77.36;91959.50;2034798;70;20305;-73
2024/04/02 02:40:31;;;;;;;2.38;0.70;;;;;;;6.87;76.92;91970.09;2034907;70;20328;-75
2024/04/02 02:42:57;;;;;;;1.02;0.90;;;;;;;6.87;76.89;91973.66;2034846;70;20144;-75
2024/04/02 02:45:23;;;;;;;1.63;0.60;;;;;;;6.88;76.49;91977.16;2031509;70;20175;-73
2024/04/02 02:47:49;;;;;;;0.50;0.50;;;;;;;6.88;76.50;91980.69;2035034;70;20163;-75
2024/04/02 02:50:15;;;;;;;0.68;0.60;;;;;;;6.91;76.24;91986.41;2034951;70;20231;-73
2024/04/02 02:52:41;;;;;;;7.28;0.77;;;;;;;6.96;75.92;91982.53;2034764;70;20151;-74
2024/04/02 02:55:07;;;;;;;0.50;0.50;;;;;;;6.92;76.88;91987.88;2034661;70;20259;-74
2024/04/02 02:57:33;;;;;;;0.70;0.57;;;;;;;6.88;75.50;91979.97;2034662;70;20164;-74
2024/04/02 02:59:58;;;;;;;0.68;0.60;;;;;;;6.88;76.74;91977.16;2034861;70;20140;-74
2024/04/02 03:02:24;;;;;;;1.00;0.90;;;;;;;6.66;75.32;91967.38;2034810;70;20160;-74
2024/04/02 03:04:50;;;;;;;1.77;0.82;;;;;;;6.91;75.14;91983.59;2031206;70;20489;-73
2024/04/02 03:07:16;;;;;;;1.92;0.70;;;;;;;6.95;74.90;91981.78;2034856;70;20279;-73
2024/04/02 03:09:42;;;;;;;0.82;0.80;;;;;;;7.06;73.94;91989.50;2030914;70;20231;-74
2024/04/02 03:12:08;;;;;;;1.73;1.02;;;;;;;6.95;74.52;91995.78;2034546;70;20208;-74
2024/04/02 03:14:33;;;;;;;1.90;0.77;;;;;;;6.81;75.09;91987.22;2031277;70;20132;-73
2024/04/02 03:16:59;;;;;;;0.77;0.63;;;;;;;7.00;75.15;91994.69;2034996;70;20505;-73
2024/04/02 03:19:25;;;;;;;0.90;0.70;;;;;;;6.75;76.90;91989.66;2034755;70;20205;-72
2024/04/02 03:21:50;;;;;;;2.20;1.00;;;;;;;6.85;75.37;92001.47;2028466;70;20147;-74
2024/04/02 03:24:16;;;;;;;0.73;0.70;;;;;;;7.02;75.60;91996.91;2031150;70;20152;-74
2024/04/02 03:26:41;;;;;;;0.77;0.77;;;;;;;6.92;76.06;91983.03;2031055;70;20141;-73
2024/04/02 03:29:07;;;;;;;1.00;0.85;;;;;;;7.08;75.91;92000.81;2030833;70;20163;-73
2024/04/02 03:31:34;;;;;;;0.98;0.80;;;;;;;7.02;76.35;92006.03;2027768;70;20178;-74
2024/04/02 03:34:00;;;;;;;1.67;0.90;;;;;;;6.97;75.90;92000.78;2031168;70;20146;-73
2024/04/02 03:36:25;;;;;;;1.98;0.98;;;;;;;6.98;75.93;92016.25;2031127;70;20152;-73
2024/04/02 03:38:51;;;;;;;1.05;0.80;;;;;;;6.88;76.57;92016.34;2030992;70;20163;-73
2024/04/02 03:41:16;;;;;;;4.00;2.80;;;;;;;7.05;75.73;92029.25;2030828;70;20141;-74
2024/04/02 03:43:43;;;;;;;1.77;1.67;;;;;;;7.09;76.23;92016.25;2030836;70;20239;-73
2024/04/02 03:46:10;;;;;;;4.32;1.30;;;;;;;7.11;75.88;92018.47;2027771;70;20241;-73
2024/04/02 03:48:36;;;;;;;2.05;1.13;;;;;;;7.14;75.53;92017.97;2028050;70;20145;-73
2024/04/02 03:51:02;;;;;;;1.70;1.30;;;;;;;7.13;75.84;92027.69;2031152;70;20167;-76
2024/04/02 03:53:28;;;;;;;1.27;1.17;;;;;;;7.18;75.88;92025.16;2031196;70;20336;-75
2024/04/02 03:56:02;;;;;;;2.33;1.05;;;;;;;7.14;76.04;92031.97;2031020;70;20261;-76
2024/04/02 03:58:29;;;;;;;1.30;0.93;;;;;;;7.21;75.87;92032.34;2030803;70;20144;-74
2024/04/02 04:00:55;;;;;;;3.63;1.10;;;;;;;7.18;76.50;92039.16;2030886;70;20160;-75
2024/04/02 04:03:26;;;;;;;1.33;1.08;;;;;;;7.14;75.48;92042.44;2028014;70;20160;-76
2024/04/02 04:06:05;;;;;;;1.40;1.20;;;;;;;6.96;76.48;92058.06;2030776;70;20241;-76
2024/04/02 04:08:32;;;;;;;2.50;1.27;;;;;;;6.27;79.58;92052.28;2031445;70;20572;-77
2024/04/02 04:10:58;;;;;;;1.15;1.00;;;;;;;6.46;79.75;92047.88;2031168;70;20152;-75
2024/04/02 04:13:24;;;;;;;1.23;1.10;;;;;;;6.63;79.67;92050.41;2031267;70;20168;-75
2024/04/02 04:16:00;;;;;;;1.10;1.00;;;;;;;6.90;78.17;92063.28;2031487;70;20151;-76
2024/04/02 04:18:27;;;;;;;2.47;0.90;;;;;;;7.00;76.36;92056.25;2031464;70;20178;-77
2024/04/02 04:20:58;;;;;;;4.13;1.65;;;;;;;6.95;77.70;92053.81;2031205;70;20204;-73
2024/04/02 04:23:24;;;;;;;2.20;1.30;;;;;;;6.95;77.75;92053.81;2031285;70;20186;-74
2024/04/02 04:26:03;;;;;;;1.80;1.20;;;;;;;6.93;77.09;92043.25;2031211;70;20519;-74
2024/04/02 04:28:29;;;;;;;2.75;1.00;;;;;;;6.94;76.75;92066.34;2031200;70;20156;-72
2024/04/02 04:30:57;;;;;;;1.20;1.00;;;;;;;7.02;77.36;92072.47;2031373;70;20581;-73
2024/04/02 04:33:23;;;;;;;1.17;0.80;;;;;;;7.08;76.40;92084.03;2031386;70;20164;-76
2024/04/02 04:35:49;;;;;;;1.30;1.00;;;;;;;6.96;76.92;92094.44;2027988;70;20593;-76
2024/04/02 04:38:15;;;;;;;2.90;1.25;;;;;;;7.06;76.31;92092.31;2031259;70;20155;-76
2024/04/02 04:40:42;;;;;;;3.05;1.30;;;;;;;7.00;76.27;92089.84;2031002;70;20156;-76
2024/04/02 04:43:08;;;;;;;1.60;1.30;;;;;;;7.04;76.75;92109.69;2031161;70;20142;-76
2024/04/02 04:45:34;;;;;;;1.95;1.60;;;;;;;7.08;76.41;92115.56;2031152;70;20228;-76
2024/04/02 04:47:59;;;;;;;5.53;1.33;;;;;;;6.88;77.86;92111.47;2031022;70;20148;-75
2024/04/02 04:50:25;;;;;;;2.47;1.50;;;;;;;6.92;77.61;92127.75;2031279;70;20236;-77
2024/04/02 04:52:54;;;;;;;3.80;1.33;;;;;;;6.93;78.20;92140.44;2028036;70;20148;-75
2024/04/02 04:55:20;;;;;;;3.08;1.42;;;;;;;7.09;77.36;92138.69;2031102;70;20148;-74
2024/04/02 04:57:45;;;;;;;7.03;1.33;;;;;;;7.12;77.29;92141.00;2031435;70;20252;-73
2024/04/02 05:00:12;;;;;;;3.20;1.38;;;;;;;7.07;77.48;92130.16;2031696;70;20176;-72
2024/04/02 05:02:38;;;;;;;2.33;1.27;;;;;;;7.09;77.57;92147.81;2031650;70;20240;-73
2024/04/02 05:05:04;;;;;;;3.22;1.45;;;;;;;7.14;77.56;92152.31;2031700;70;20211;-74
2024/04/02 05:07:30;;;;;;;2.42;1.30;;;;;;;7.11;78.01;92150.03;2031725;70;20148;-73
2024/04/02 05:09:55;;;;;;;1.10;1.00;;;;;;;7.17;77.62;92155.28;2025567;70;20184;-74
2024/04/02 05:12:21;;;;;;;1.23;1.10;;;;;;;7.17;78.35;92158.78;2031180;70;20144;-73
2024/04/02 05:14:46;;;;;;;4.93;1.17;;;;;;;7.23;77.59;92153.56;2031603;70;20152;-75
2024/04/02 05:17:12;;;;;;;2.22;1.58;;;;;;;7.27;77.30;92161.50;2031579;70;20165;-75
2024/04/02 05:19:38;;;;;;;2.88;1.58;;;;;;;7.27;77.34;92167.84;2031697;70;20224;-75
2024/04/02 05:22:06;;;;;;;3.22;1.95;;;;;;;7.31;77.36;92168.09;2028523;70;20117;-77
2024/04/02 05:24:32;;;;;;;3.53;1.85;;;;;;;6.99;79.37;92169.53;2031703;70;20589;-74
2024/04/02 05:26:59;;;;;;;4.10;2.22;;;;;;;6.57;81.40;92173.06;2028446;70;20144;-73
2024/04/02 05:29:25;;;;;;;16.17;7.90;;;;;;;6.60;81.73;92174.69;2031300;70;20148;-74
2024/04/02 05:31:50;;;;;;;8.77;4.50;;;;;;;6.83;81.09;92151.72;2031701;70;20148;-74
2024/04/02 05:34:16;;;;;;;3.33;2.10;;;;;;;7.33;77.30;92173.84;2031768;70;20483;-73
2024/04/02 05:36:42;;;;;;;2.15;1.50;;;;;;;7.42;78.24;92188.34;2028514;70;20153;-74
2024/04/02 05:39:08;;;;;;;4.35;1.40;;;;;;;7.56;78.18;92187.19;2031698;70;20216;-76
2024/04/02 05:41:33;;;;;;;3.05;1.48;;;;;;;7.79;77.73;92182.97;2028340;70;20192;-78
2024/04/02 05:43:59;;;;;;;2.05;1.30;;;;;;;7.81;76.36;92189.44;2031265;70;20156;-77
2024/04/02 05:46:25;;;;;;;2.53;1.40;;;;;;;7.71;76.17;92191.63;2031531;70;20143;-77
2024/04/02 05:48:50;;;;;;;1.92;1.38;;;;;;;7.92;74.10;92190.81;2031720;70;20159;-77
2024/04/02 05:51:16;;;;;;;1.98;1.50;;;;;;;7.81;75.57;92185.91;2031712;70;20209;-77
2024/04/02 05:53:43;;;;;;;4.40;1.50;;;;;;;8.01;75.17;92189.22;2031546;70;20160;-75
2024/04/02 05:56:09;;;;;;;2.60;1.40;;;;;;;7.99;75.31;92198.25;2031555;70;20183;-75
2024/04/02 05:58:34;;;;;;;4.13;2.30;;;;;;;7.48;75.38;92175.47;2031293;70;20247;-75
2024/04/02 06:01:05;;;;;;;2.80;1.90;;;;;;;7.78;76.08;92204.66;2028561;70;20514;-75
2024/04/02 06:03:32;;;;;;;2.30;1.50;;;;;;;7.78;75.96;92210.25;2031696;70;20144;-74
2024/04/02 06:05:59;;;;;;;2.13;1.60;;;;;;;7.88;74.32;92210.19;2031843;70;20155;-74
2024/04/02 06:08:25;;;;;;;3.80;1.67;;;;;;;8.06;74.32;92199.34;2031780;70;20152;-76
2024/04/02 06:10:53;;;;;;;4.40;3.20;;;;;;;8.10;73.46;92211.56;2031706;70;20160;-74
2024/04/02 06:13:19;;;;;;;4.75;2.20;;;;;;;8.13;73.56;92210.34;2031619;70;20307;-73
2024/04/02 06:15:45;;;;;;;4.10;2.10;;;;;;;8.30;73.11;92205.75;2031224;70;20597;-73
2024/04/02 06:18:10;;;;;;;2.15;1.55;;;;;;;8.48;71.61;92201.25;2028304;70;20179;-75
2024/04/02 06:20:36;;;;;;;1.92;1.40;;;;;;;8.57;71.85;92200.41;2031614;70;20598;-75
2024/04/02 06:23:01;;;;;;;2.35;1.40;;;;;;;8.56;71.94;92206.63;2031594;70;20172;-77
2024/04/02 06:25:28;;;;;;;1.55;1.30;;;;;;;8.41;71.20;92193.81;2031600;70;20637;-74
2024/04/02 06:27:53;;;;;;;3.40;1.98;;;;;;;8.30;71.53;92198.06;2031484;70;20276;-74
2024/04/02 06:30:19;;;;;;;4.50;1.80;;;;;;;8.41;70.58;92221.88;2031408;70;20598;-74
2024/04/02 06:32:44;;;;;;;1.63;1.30;;;;;;;8.26;72.69;92211.84;2031255;70;20163;-74
2024/04/02 06:35:11;;;;;;;1.50;1.20;;;;;;;8.56;71.53;92215.03;2031540;70;20163;-74
2024/04/02 06:37:36;;;;;;;1.60;1.10;;;;;;;8.89;72.10;92214.91;2031576;70;20184;-73
2024/04/02 06:40:03;;;;;;;1.80;1.30;;;;;;;9.12;70.99;92200.09;2031267;70;20156;-74
2024/04/02 06:42:28;;;;;;;3.13;1.27;;;;;;;9.10;71.70;92216.81;2031624;70;20205;-74
2024/04/02 06:44:55;;;;;;;1.10;0.88;;;;;;;9.06;68.53;92225.00;2031430;70;20498;-75
2024/04/02 06:47:21;;;;;;;1.60;1.20;;;;;;;9.31;68.32;92216.66;2031435;70;20144;-75
2024/04/02 06:49:46;;;;;;;2.45;1.80;;;;;;;9.13;69.12;92215.59;2031422;70;20669;-76
2024/04/02 06:52:12;;;;;;;3.95;1.50;;;;;;;9.13;68.24;92218.41;2031793;70;20168;-75
2024/04/02 06:54:38;;;;;;;1.52;1.30;;;;;;;9.29;67.68;92210.16;2031554;70;20565;-75
2024/04/02 06:57:04;;;;;;;3.65;1.10;;;;;;;9.31;67.87;92210.31;2028565;70;20255;-75
2024/04/02 06:59:29;;;;;;;2.65;1.30;;;;;;;9.36;67.74;92223.22;2031494;70;20478;-76
2024/04/02 07:01:55;;;;;;;2.47;1.33;;;;;;;9.34;68.20;92223.81;2031609;70;20149;-74
2024/04/02 07:04:21;;;;;;;1.70;1.20;;;;;;;9.32;67.59;92225.81;2031188;70;20167;-74
2024/04/02 07:06:46;;;;;;;3.47;1.90;;;;;;;8.98;68.64;92216.09;2031436;70;20149;-76
2024/04/02 07:09:12;;;;;;;2.67;1.60;;;;;;;8.63;71.49;92217.59;2028128;70;20585;-75
2024/04/02 07:11:38;;;;;;;4.53;1.40;;;;;;;9.24;69.47;92222.53;2031669;70;20175;-75
2024/04/02 07:14:03;;;;;;;3.70;1.50;;;;;;;9.59;67.92;92217.53;2031204;70;20180;-77
2024/04/02 07:16:29;;;;;;;2.55;1.50;;;;;;;9.74;68.32;92227.47;2031594;70;20198;-76
2024/04/02 07:18:54;;;;;;;4.70;1.80;;;;;;;9.68;68.42;92222.25;2031232;70;20220;-82
2024/04/02 07:21:20;;;;;;;3.25;2.25;;;;;;;9.74;68.11;92221.88;2031349;70;20140;-75
2024/04/02 07:23:46;;;;;;;6.00;2.50;;;;;;;9.84;67.52;92213.25;2031377;70;20160;-76
2024/04/02 07:26:11;;;;;;;5.78;2.83;;;;;;;10.15;67.41;92215.66;2031223;70;20510;-75
2024/04/02 07:28:38;;;;;;;9.10;3.28;;;;;;;10.24;66.88;92226.03;2030909;70;20145;-74
2024/04/02 07:31:03;;;;;;;5.07;3.25;;;;;;;10.41;67.00;92225.56;2031208;70;20171;-73
2024/04/02 07:33:29;;;;;;;3.63;2.30;;;;;;;10.50;64.45;92211.94;2030981;70;20152;-73
2024/04/02 07:35:57;;;;;;;4.93;2.35;;;;;;;10.59;64.54;92225.81;2031395;70;20578;-72
2024/04/02 07:38:23;;;;;;;3.15;1.60;;;;;;;10.49;65.50;92225.28;2031263;70;20172;-72
2024/04/02 07:40:48;;;;;;;1.75;1.30;;;;;;;10.57;63.59;92216.50;2031209;70;20498;-74
2024/04/02 07:43:14;;;;;;;2.67;1.30;;;;;;;11.00;62.10;92232.84;2031254;70;20581;-74
2024/04/02 07:45:40;;;;;;;2.35;1.17;;;;;;;11.03;61.89;92234.38;2031546;70;20164;-74
2024/04/02 07:48:06;;;;;;;1.10;1.00;;;;;;;11.14;62.34;92239.19;2031477;70;20561;-75
2024/04/02 07:50:35;;;;;;;2.97;1.00;;;;;;;10.94;63.51;92242.41;2031191;70;20160;-75
2024/04/02 07:53:01;;;;;;;2.00;1.00;;;;;;;11.09;64.03;92241.06;2031688;70;20540;-74
2024/04/02 07:55:27;;;;;;;1.92;1.13;;;;;;;11.37;63.33;92252.34;2031801;70;20145;-73
2024/04/02 07:57:53;;;;;;;1.45;0.98;;;;;;;11.45;61.38;92253.47;2031678;70;20168;-77
2024/04/02 08:00:18;;;;;;;1.52;1.00;;;;;;;11.08;60.69;92239.59;2028408;70;20156;-76
2024/04/02 08:02:46;;;;;;;2.53;0.90;;;;;;;11.49;59.49;92257.84;2031684;70;20626;-74
2024/04/02 08:05:13;;;;;;;1.92;1.20;;;;;;;11.55;59.89;92263.81;2028291;70;20208;-76
2024/04/02 08:07:48;;;;;;;2.88;1.13;;;;;;;11.70;59.89;92263.88;2031253;70;20263;-76
2024/04/02 08:10:14;;;;;;;2.95;1.50;;;;;;;11.88;59.54;92252.78;2031015;70;20514;-74
2024/04/02 08:12:41;;;;;;;2.47;1.73;;;;;;;11.58;60.18;92265.34;2031314;70;20605;-72
2024/04/02 08:15:08;;;;;;;4.10;1.50;;;;;;;11.79;58.78;92258.63;2031233;70;20498;-76
2024/04/02 08:17:34;;;;;;;2.97;1.48;;;;;;;11.26;59.28;92278.53;2031324;70;20622;-77
2024/04/02 08:20:00;;;;;;;3.33;1.50;;;;;;;11.81;59.07;92275.63;2031289;70;20227;-74
2024/04/02 08:22:26;;;;;;;1.77;1.63;;;;;;;11.97;58.07;92272.94;2031532;70;20589;-74
2024/04/02 08:24:53;;;;;;;2.03;1.10;;;;;;;11.64;58.12;92271.31;2027642;70;20148;-74
2024/04/02 08:27:19;;;;;;;3.80;2.90;;;;;;;11.70;59.11;92274.41;2031256;70;20180;-76
2024/04/02 08:29:45;;;;;;;1.10;1.00;;;;;;;11.91;57.82;92276.91;2031063;70;20184;-74
2024/04/02 08:32:10;;;;;;;1.35;0.90;;;;;;;12.27;57.45;92282.13;2031149;70;20148;-75
2024/04/02 08:34:36;;;;;;;1.10;1.00;;;;;;;12.37;57.03;92289.00;2031247;70;20216;-73
2024/04/02 08:37:02;;;;;;;1.30;1.00;;;;;;;12.58;56.85;92279.38;2031368;70;20144;-73
2024/04/02 08:39:27;;;;;;;2.28;1.17;;;;;;;12.62;56.75;92273.19;2031056;70;20176;-73
2024/04/02 08:41:58;;;;;;;1.23;0.98;;;;;;;12.92;57.90;92277.41;2031139;70;20525;-73
2024/04/02 08:44:24;;;;;;;2.08;1.30;;;;;;;12.79;56.81;92281.03;2031208;70;20207;-72
2024/04/02 08:46:50;;;;;;;3.40;1.08;;;;;;;13.34;56.81;92294.09;2027912;70;20263;-74
2024/04/02 08:49:18;;;;;;;1.25;0.80;;;;;;;13.48;54.78;92295.44;2031181;70;20229;-75
2024/04/02 08:51:44;;;;;;;2.78;1.20;;;;;;;13.76;55.10;92291.66;2031232;70;20181;-77
2024/04/02 08:54:09;;;;;;;1.33;1.00;;;;;;;13.78;54.90;92303.03;2027945;70;20276;-77
2024/04/02 08:56:35;;;;;;;2.25;0.77;;;;;;;13.74;53.84;92306.44;2030778;70;20231;-73
2024/04/02 08:59:03;;;;;;;2.33;1.48;;;;;;;13.25;53.53;92298.66;2031003;70;20505;-73
2024/04/02 09:01:30;;;;;;;3.22;1.80;;;;;;;13.11;53.19;92306.50;2031138;70;20535;-76
2024/04/02 09:04:01;;;;;;;5.28;3.17;;;;;;;12.70;54.88;92307.44;2031239;70;20545;-76
2024/04/02 09:06:27;;;;;;;4.00;2.30;;;;;;;13.21;54.38;92307.66;2031331;70;20220;-77
2024/04/02 09:08:53;;;;;;;1.33;0.90;;;;;;;13.15;53.45;92309.50;2031225;70;20181;-73
2024/04/02 09:11:18;;;;;;;1.27;0.95;;;;;;;13.28;53.45;92303.03;2031130;70;20239;-75
2024/04/02 09:13:44;;;;;;;3.45;1.08;;;;;;;13.56;53.34;92303.56;2030736;70;20152;-72
2024/04/02 09:16:10;;;;;;;3.80;1.38;;;;;;;13.53;52.57;92318.97;2031113;70;20132;-73
2024/04/02 09:18:37;;;;;;;1.80;0.90;;;;;;;13.43;53.78;92307.22;2031094;70;20137;-73
2024/04/02 09:21:03;;;;;;;2.95;1.02;;;;;;;14.35;52.02;92302.59;2031080;70;20153;-73
2024/04/02 09:23:30;;;;;;;1.40;0.80;;;;;;;14.00;51.04;92306.81;2030953;70;20200;-73
2024/04/02 09:25:56;;;;;;;2.72;1.95;;;;;;;13.63;51.25;92307.38;2030960;70;20167;-73
2024/04/02 09:28:22;;;;;;;2.90;0.90;;;;;;;14.99;51.78;92323.56;2030787;70;20148;-73
2024/04/02 09:30:48;;;;;;;2.38;0.80;;;;;;;15.94;51.01;92319.94;2030749;70;20528;-74
2024/04/02 09:33:16;;;;;;;2.60;0.98;;;;;;;16.12;48.75;92328.34;2030976;70;20244;-74
2024/04/02 09:36:05;;;;;;;2.00;0.88;;;;;;;15.03;48.21;92331.47;2027716;70;20499;-74
2024/04/02 09:38:34;;;;;;;1.90;0.80;;;;;;;15.95;49.63;92321.41;2031142;70;20137;-74
2024/04/02 09:41:01;;;;;;;0.95;0.65;;;;;;;16.63;47.63;92319.44;2031167;70;20175;-73
2024/04/02 09:43:30;;;;;;;1.45;0.63;;;;;;;16.19;46.17;92321.50;2031311;70;20140;-75
2024/04/02 09:46:01;;;;;;;1.10;0.50;;;;;;;15.57;46.03;92309.38;2028401;70;20189;-78
2024/04/02 09:48:33;;;;;;;0.47;0.40;;;;;;;15.45;44.60;92313.22;2031576;70;20272;-76
2024/04/02 09:51:00;;;;;;;0.30;0.30;;;;;;;15.57;43.25;92321.44;2031757;70;20626;-76
2024/04/02 09:53:28;;;;;;;1.63;0.30;;;;;;;15.82;43.85;92316.69;2031611;70;20163;-75
2024/04/02 09:55:57;;;;;;;0.88;0.40;;;;;;;15.49;44.03;92319.06;2031417;70;20528;-74
2024/04/02 09:58:23;;;;;;;2.63;0.30;;;;;;;15.76;43.30;92317.19;2031525;70;20167;-72
2024/04/02 10:00:54;;;;;;;0.73;0.60;;;;;;;15.91;44.10;92313.47;2031528;70;20156;-76
2024/04/02 10:03:23;;;;;;;1.52;0.40;;;;;;;14.78;44.21;92307.84;2028477;70;20163;-77
2024/04/02 10:05:51;;;;;;;1.67;0.30;;;;;;;15.08;43.60;92313.25;2031595;70;20137;-77
2024/04/02 10:08:17;;;;;;;2.13;0.38;;;;;;;14.48;44.36;92296.81;2031584;70;20620;-73
2024/04/02 10:10:45;;;;;;;0.45;0.45;;;;;;;15.80;43.38;92310.91;2031546;70;20243;-75
2024/04/02 10:13:11;;;;;;;2.38;0.40;;;;;;;15.22;42.01;92308.13;2028250;70;20160;-75
2024/04/02 10:15:36;;;;;;;0.50;0.40;;;;;;;15.33;40.45;92289.34;2031304;70;20236;-73
2024/04/02 10:18:03;;;;;;;1.23;0.60;;;;;;;14.83;41.21;92286.81;2028269;70;20172;-75
2024/04/02 10:20:33;;;;;;;0.35;0.30;;;;;;;16.53;38.16;92297.06;2031633;70;20152;-73
2024/04/02 10:23:01;;;;;;;1.15;0.50;;;;;;;16.09;38.16;92295.63;2031541;70;20148;-74
2024/04/02 10:25:31;;;;;;;2.00;0.63;;;;;;;18.57;37.97;92299.38;2031439;70;20199;-74
2024/04/02 10:28:01;;;;;;;1.80;0.57;;;;;;;16.38;36.47;92291.59;2031521;70;20144;-74
2024/04/02 10:30:27;;;;;;;2.05;0.60;;;;;;;17.68;37.07;92292.00;2031699;70;20152;-75
2024/04/02 10:32:55;;;;;;;0.38;0.20;;;;;;;17.02;35.14;92298.63;2031607;70;20148;-74
2024/04/02 10:35:24;;;;;;;0.20;0.20;;;;;;;17.83;35.92;92288.19;2031356;70;20164;-73
2024/04/02 10:37:52;;;;;;;0.60;0.28;;;;;;;20.25;34.46;92295.91;2031669;70;20171;-77
2024/04/02 10:40:18;;;;;;;0.20;0.20;;;;;;;20.71;32.05;92303.16;2031630;70;20145;-78
2024/04/02 10:42:48;;;;;;;1.75;0.40;;;;;;;20.95;31.41;92291.41;2031428;70;20176;-80
2024/04/02 10:45:15;;;;;;;2.08;0.10;;;;;;;21.97;29.00;92287.81;2028341;70;20586;-76
2024/04/02 10:47:48;;;;;;;0.30;0.20;;;;;;;23.15;29.95;92294.06;2031600;70;20141;-79
2024/04/02 10:50:15;;;;;;;0.10;0.10;;;;;;;20.97;30.70;92291.44;2031650;70;20169;-78
2024/04/02 10:52:41;;;;;;;0.30;0.20;;;;;;;21.52;29.80;92292.25;2028395;70;20562;-76
2024/04/02 10:55:08;;;;;;;0.20;0.10;;;;;;;25.32;27.24;92290.56;2031565;70;20140;-77
2024/04/02 10:57:34;;;;;;;0.13;0.10;;;;;;;27.21;25.55;92302.81;2031425;70;20600;-77
2024/04/02 11:00:04;;;;;;;0.98;0.40;;;;;;;26.70;23.60;92267.78;2031592;70;20530;-77
2024/04/02 11:02:33;;;;;;;1.05;0.25;;;;;;;27.68;23.57;92304.63;2031671;70;20176;-78
2024/04/02 11:05:00;;;;;;;0.45;0.20;;;;;;;27.01;23.55;92309.44;2031376;70;20160;-76
2024/04/02 11:07:27;;;;;;;0.40;0.20;;;;;;;27.66;23.32;92319.06;2028357;70;20256;-76
2024/04/02 11:09:53;;;;;;;0.10;0.10;;;;;;;27.00;24.19;92310.91;2031836;70;20198;-74
2024/04/02 11:12:19;;;;;;;0.28;0.10;;;;;;;29.38;23.00;92315.59;2031338;70;20153;-75
2024/04/02 11:14:51;;;;;;;0.08;0.08;;;;;;;26.60;24.52;92317.63;2031428;70;20263;-76
2024/04/02 11:17:16;;;;;;;0.75;0.22;;;;;;;27.95;22.58;92305.81;2031384;70;20220;-74
2024/04/02 11:19:42;;;;;;;0.70;0.40;;;;;;;23.05;23.81;92309.06;2028148;70;20152;-75
2024/04/02 11:24:58;;;;;;;0.32;0.20;;;;;;;22.78;23.10;92315.97;2031576;70;20143;-81
2024/04/02 11:27:25;;;;;;;0.30;0.20;;;;;;;24.24;22.60;92344.28;2031322;70;20149;-77
2024/04/02 11:29:52;;;;;;;0.28;0.17;;;;;;;21.24;24.85;92319.03;2031493;70;20575;-77
2024/04/02 11:32:18;;;;;;;0.40;0.20;;;;;;;22.05;23.59;92338.78;2031496;70;20460;-79
2024/04/02 11:34:43;;;;;;;0.63;0.20;;;;;;;25.59;21.24;92328.72;2031218;70;20182;-81
2024/04/02 11:37:09;;;;;;;1.30;0.28;;;;;;;26.40;21.67;92332.84;2031569;70;20221;-78
2024/04/02 11:39:35;;;;;;;0.52;0.20;;;;;;;27.24;20.55;92333.16;2031795;70;20182;-82